createdAt,value
2023-11-30T00:01:27.308Z,5.74
2023-11-30T00:03:56.137Z,5.66
2023-11-30T00:06:24.867Z,5.62
2023-11-30T00:08:54.819Z,5.60
2023-11-30T00:11:23.500Z,5.59
2023-11-30T00:13:52.111Z,5.36
2023-11-30T00:16:20.754Z,5.60
2023-11-30T00:18:50.785Z,5.66
2023-11-30T00:21:20.516Z,5.45
2023-11-30T00:23:50.298Z,5.60
2023-11-30T00:26:18.964Z,5.60
2023-11-30T00:28:56.026Z,5.58
2023-11-30T00:31:27.236Z,5.55
2023-11-30T00:33:58.758Z,5.41
2023-11-30T00:36:27.422Z,5.49
2023-11-30T00:38:56.101Z,5.51
2023-11-30T00:41:24.714Z,5.52
2023-11-30T00:43:53.373Z,5.54
2023-11-30T00:46:22.086Z,5.57
2023-11-30T00:48:50.834Z,5.58
2023-11-30T00:51:20.932Z,4.70
2023-11-30T00:53:49.647Z,5.57
2023-11-30T00:56:18.247Z,5.55
2023-11-30T00:58:46.891Z,5.56
2023-11-30T01:01:15.566Z,5.57
2023-11-30T01:03:44.280Z,5.58
2023-11-30T01:06:13.289Z,5.64
2023-11-30T01:08:43.400Z,5.72
2023-11-30T01:11:12.067Z,5.32
2023-11-30T01:13:40.653Z,5.20
2023-11-30T01:16:11.014Z,5.72
2023-11-30T01:18:39.893Z,5.72
2023-11-30T01:21:09.466Z,5.71
2023-11-30T01:23:38.250Z,5.68
2023-11-30T01:26:08.686Z,5.67
2023-11-30T01:28:37.615Z,4.76
2023-11-30T01:31:06.534Z,5.61
2023-11-30T01:33:37.711Z,5.60
2023-11-30T01:36:07.454Z,5.52
2023-11-30T01:38:36.072Z,5.43
2023-11-30T01:41:04.612Z,5.37
2023-11-30T01:43:34.671Z,5.32
2023-11-30T01:46:04.642Z,5.27
2023-11-30T01:48:35.048Z,5.22
2023-11-30T01:51:07.294Z,5.23
2023-11-30T01:53:37.704Z,5.22
2023-11-30T01:56:08.670Z,5.25
2023-11-30T01:58:39.597Z,5.26
2023-11-30T02:01:09.507Z,5.25
2023-11-30T02:03:39.277Z,5.23
2023-11-30T02:06:08.752Z,5.19
2023-11-30T02:08:37.576Z,5.14
2023-11-30T02:11:07.476Z,5.11
2023-11-30T02:13:36.125Z,5.11
2023-11-30T02:16:06.832Z,5.05
2023-11-30T02:18:35.520Z,5.11
2023-11-30T02:21:04.160Z,5.00
2023-11-30T02:23:34.192Z,5.07
2023-11-30T02:26:03.328Z,5.10
2023-11-30T02:28:32.933Z,5.12
2023-11-30T02:31:01.506Z,5.11
2023-11-30T02:33:30.118Z,5.10
2023-11-30T02:35:58.812Z,5.13
2023-11-30T02:38:27.339Z,4.84
2023-11-30T02:40:57.379Z,5.19
2023-11-30T02:43:29.386Z,5.17
2023-11-30T02:45:58.182Z,5.22
2023-11-30T02:48:26.801Z,5.25
2023-11-30T02:50:55.456Z,5.26
2023-11-30T02:53:24.098Z,5.21
2023-11-30T02:55:52.724Z,5.24
2023-11-30T02:58:22.704Z,4.79
2023-11-30T03:00:51.404Z,5.36
2023-11-30T03:03:20.167Z,5.38
2023-11-30T03:05:48.788Z,5.36
2023-11-30T03:08:17.689Z,5.37
2023-11-30T03:10:47.548Z,5.28
2023-11-30T03:13:16.236Z,5.31
2023-11-30T03:15:49.389Z,5.45
2023-11-30T03:18:18.477Z,5.49
2023-11-30T03:20:47.647Z,5.49
2023-11-30T03:23:16.278Z,5.48
2023-11-30T03:25:44.953Z,5.39
2023-11-30T03:28:13.612Z,5.41
2023-11-30T03:30:43.685Z,5.47
2023-11-30T03:33:14.341Z,5.50
2023-11-30T03:35:44.178Z,5.55
2023-11-30T03:38:13.895Z,5.20
2023-11-30T03:40:43.465Z,5.57
2023-11-30T03:43:12.092Z,5.04
2023-11-30T03:45:40.706Z,5.59
2023-11-30T03:48:09.483Z,5.61
2023-11-30T03:50:39.592Z,5.70
2023-11-30T03:53:08.247Z,5.74
2023-11-30T03:55:37.035Z,5.76
2023-11-30T03:58:06.492Z,5.68
2023-11-30T04:00:35.317Z,5.37
2023-11-30T04:06:53.090Z,5.60
2023-11-30T04:09:21.798Z,5.64
2023-11-30T04:11:50.651Z,5.25
2023-11-30T04:14:20.221Z,5.08
2023-11-30T04:16:48.960Z,5.69
2023-11-30T04:19:17.541Z,5.58
2023-11-30T04:21:46.182Z,5.70
2023-11-30T04:24:17.390Z,5.73
2023-11-30T04:26:46.142Z,5.74
2023-11-30T04:29:14.660Z,5.73
2023-11-30T04:31:43.285Z,5.74
2023-11-30T04:34:12.076Z,5.76
2023-11-30T04:36:40.638Z,5.78
2023-11-30T04:39:09.464Z,5.80
2023-11-30T04:41:39.630Z,5.85
2023-11-30T04:44:08.391Z,5.86
2023-11-30T04:46:37.067Z,5.92
2023-11-30T04:49:07.213Z,5.99
2023-11-30T04:51:36.868Z,5.99
2023-11-30T04:54:05.702Z,6.02
2023-11-30T04:56:34.341Z,6.01
2023-11-30T04:59:04.525Z,5.96
2023-11-30T05:01:34.263Z,5.94
2023-11-30T05:04:05.411Z,5.94
2023-11-30T05:06:34.817Z,5.98
2023-11-30T05:09:04.197Z,6.04
2023-11-30T05:11:32.893Z,6.07
2023-11-30T05:14:01.503Z,6.07
2023-11-30T05:16:31.518Z,6.17
2023-11-30T05:19:00.126Z,6.19
2023-11-30T05:21:28.941Z,6.19
2023-11-30T05:23:57.556Z,6.21
2023-11-30T05:26:26.219Z,6.26
2023-11-30T05:28:54.845Z,6.32
2023-11-30T05:31:23.500Z,6.33
2023-11-30T05:33:53.459Z,6.33
2023-11-30T05:36:22.140Z,6.30
2023-11-30T05:38:51.660Z,6.29
2023-11-30T05:41:20.321Z,6.26
2023-11-30T05:43:48.997Z,6.28
2023-11-30T05:46:17.607Z,6.29
2023-11-30T05:48:46.739Z,6.35
2023-11-30T05:51:16.881Z,6.37
2023-11-30T05:53:45.567Z,6.36
2023-11-30T05:56:14.269Z,6.35
2023-11-30T05:58:42.881Z,6.36
2023-11-30T06:01:11.503Z,6.37
2023-11-30T06:03:40.606Z,6.38
2023-11-30T06:06:11.217Z,6.44
2023-11-30T06:08:41.393Z,6.45
2023-11-30T06:11:10.441Z,6.47
2023-11-30T06:13:39.126Z,6.43
2023-11-30T06:16:08.852Z,6.43
2023-11-30T06:18:37.485Z,6.44
2023-11-30T06:21:10.750Z,6.50
2023-11-30T06:23:40.821Z,6.43
2023-11-30T06:26:10.314Z,6.55
2023-11-30T06:28:38.841Z,6.57
2023-11-30T06:31:08.443Z,6.54
2023-11-30T06:33:37.121Z,6.54
2023-11-30T06:36:06.673Z,6.32
2023-11-30T06:38:35.364Z,6.50
2023-11-30T06:41:12.646Z,6.42
2023-11-30T06:43:42.248Z,6.48
2023-11-30T06:46:10.929Z,6.48
2023-11-30T06:48:39.587Z,6.50
2023-11-30T06:51:09.334Z,6.54
2023-11-30T06:53:38.040Z,6.56
2023-11-30T06:56:11.575Z,6.60
2023-11-30T06:58:40.465Z,6.65
2023-11-30T07:01:09.370Z,6.69
2023-11-30T07:03:42.714Z,6.71
2023-11-30T07:06:12.627Z,6.75
2023-11-30T07:08:41.316Z,6.80
2023-11-30T07:11:13.405Z,6.85
2023-11-30T07:13:41.981Z,6.86
2023-11-30T07:16:12.111Z,6.88
2023-11-30T07:18:40.901Z,6.92
2023-11-30T07:21:14.885Z,7.02
2023-11-30T07:23:44.235Z,7.04
2023-11-30T07:26:15.048Z,7.08
2023-11-30T07:28:44.215Z,6.94
2023-11-30T07:31:20.790Z,7.14
2023-11-30T07:33:49.776Z,7.12
2023-11-30T07:36:18.612Z,7.14
2023-11-30T07:38:47.308Z,7.19
2023-11-30T07:41:18.843Z,7.19
2023-11-30T07:43:47.471Z,7.13
2023-11-30T07:46:16.664Z,7.20
2023-11-30T07:48:45.317Z,7.23
2023-11-30T07:51:14.185Z,7.28
2023-11-30T07:53:42.794Z,7.30
2023-11-30T07:56:12.504Z,7.35
2023-11-30T07:58:45.341Z,7.38
2023-11-30T08:01:14.316Z,7.38
2023-11-30T08:03:44.045Z,7.42
2023-11-30T08:06:12.856Z,7.44
2023-11-30T08:08:41.480Z,7.44
2023-11-30T08:11:10.198Z,7.46
2023-11-30T08:13:38.853Z,6.98
2023-11-30T08:16:09.995Z,7.53
2023-11-30T08:18:40.267Z,7.54
2023-11-30T08:21:09.107Z,7.55
2023-11-30T08:23:39.234Z,7.58
2023-11-30T08:26:08.285Z,7.60
2023-11-30T08:28:36.864Z,7.61
2023-11-30T08:31:07.141Z,7.58
2023-11-30T08:33:37.243Z,7.57
2023-11-30T08:36:06.348Z,7.48
2023-11-30T08:38:37.527Z,7.28
2023-11-30T08:41:06.440Z,7.51
2023-11-30T08:43:35.044Z,7.52
2023-11-30T08:46:03.853Z,7.54
2023-11-30T08:48:32.603Z,7.60
2023-11-30T08:51:02.843Z,7.15
2023-11-30T08:53:31.507Z,7.71
2023-11-30T08:56:00.053Z,7.75
2023-11-30T08:58:28.852Z,7.81
2023-11-30T09:00:57.496Z,7.85
2023-11-30T09:03:26.372Z,7.87
2023-11-30T09:05:55.262Z,7.88
2023-11-30T09:08:25.190Z,7.89
2023-11-30T09:10:53.815Z,7.91
2023-11-30T09:13:22.750Z,7.94
2023-11-30T09:15:51.351Z,7.96
2023-11-30T09:18:20.040Z,8.02
2023-11-30T09:20:49.796Z,8.07
2023-11-30T09:23:18.682Z,8.10
2023-11-30T09:25:48.676Z,8.19
2023-11-30T09:28:17.426Z,8.25
2023-11-30T09:30:47.742Z,8.33
2023-11-30T09:33:16.461Z,8.09
2023-11-30T09:35:46.111Z,8.41
2023-11-30T09:38:14.831Z,8.44
2023-11-30T09:40:45.547Z,8.46
2023-11-30T09:43:19.464Z,8.46
2023-11-30T09:45:49.954Z,8.27
2023-11-30T09:48:19.029Z,8.57
2023-11-30T09:50:52.481Z,8.65
2023-11-30T09:53:22.881Z,8.70
2023-11-30T09:55:51.620Z,8.74
2023-11-30T09:58:22.410Z,8.81
2023-11-30T10:00:51.130Z,8.84
2023-11-30T10:03:19.818Z,8.89
2023-11-30T10:05:48.501Z,8.93
2023-11-30T10:08:17.680Z,8.88
2023-11-30T10:10:49.269Z,9.02
2023-11-30T10:13:17.947Z,9.04
2023-11-30T10:15:48.160Z,9.10
2023-11-30T10:18:16.848Z,9.15
2023-11-30T10:20:46.052Z,9.20
2023-11-30T10:23:15.232Z,9.24
2023-11-30T10:25:47.475Z,9.25
2023-11-30T10:28:16.982Z,9.25
2023-11-30T10:30:48.183Z,9.28
2023-11-30T10:33:24.411Z,9.31
2023-11-30T10:35:54.556Z,9.33
2023-11-30T10:38:35.144Z,9.38
2023-11-30T10:41:09.513Z,9.25
2023-11-30T10:43:39.724Z,9.42
2023-11-30T10:46:10.629Z,9.46
2023-11-30T10:48:41.498Z,9.47
2023-11-30T10:51:13.072Z,9.49
2023-11-30T10:53:49.355Z,9.51
2023-11-30T10:56:20.741Z,9.53
2023-11-30T10:58:49.593Z,9.51
2023-11-30T11:01:19.961Z,9.60
2023-11-30T11:03:57.200Z,9.62
2023-11-30T11:06:28.875Z,9.68
2023-11-30T11:09:04.599Z,9.76
2023-11-30T11:11:33.203Z,9.81
2023-11-30T11:14:03.125Z,9.72
2023-11-30T11:16:42.800Z,9.93
2023-11-30T11:19:12.359Z,9.86
2023-11-30T11:21:42.537Z,9.94
2023-11-30T11:24:12.162Z,9.99
2023-11-30T11:26:48.224Z,10.06
2023-11-30T11:29:24.266Z,9.86
2023-11-30T11:32:02.043Z,10.10
2023-11-30T11:34:32.049Z,10.09
2023-11-30T11:37:00.812Z,10.12
2023-11-30T11:39:29.680Z,10.22
2023-11-30T11:41:58.236Z,10.27
2023-11-30T11:44:27.956Z,10.30
2023-11-30T11:46:56.668Z,10.29
2023-11-30T11:49:26.720Z,10.30
2023-11-30T11:51:56.446Z,10.29
2023-11-30T11:54:26.087Z,10.34
2023-11-30T11:56:55.681Z,10.37
2023-11-30T11:59:25.588Z,10.39
2023-11-30T12:01:54.626Z,10.40
2023-11-30T12:04:35.374Z,10.41
2023-11-30T12:07:14.979Z,10.41
2023-11-30T12:09:43.853Z,10.41
2023-11-30T12:12:13.749Z,10.44
2023-11-30T12:14:42.457Z,10.48
2023-11-30T12:17:11.157Z,10.49
2023-11-30T12:19:41.279Z,10.46
2023-11-30T12:22:09.918Z,10.49
2023-11-30T12:24:38.626Z,10.53
2023-11-30T12:27:07.575Z,10.53
2023-11-30T12:29:36.504Z,10.52
2023-11-30T12:32:05.739Z,10.56
2023-11-30T12:34:34.657Z,10.56
2023-11-30T12:37:05.069Z,10.66
2023-11-30T12:39:34.255Z,10.68
2023-11-30T12:42:03.654Z,10.72
2023-11-30T12:44:34.784Z,10.76
2023-11-30T12:47:03.617Z,10.72
2023-11-30T12:49:34.383Z,10.73
2023-11-30T12:52:07.115Z,10.84
2023-11-30T12:54:35.986Z,10.90
2023-11-30T12:57:05.262Z,10.88
2023-11-30T12:59:34.228Z,10.95
2023-11-30T13:02:03.198Z,10.93
2023-11-30T13:04:31.813Z,10.86
2023-11-30T13:07:00.817Z,10.79
2023-11-30T13:09:33.646Z,10.89
2023-11-30T13:12:02.491Z,10.90
2023-11-30T13:14:31.144Z,10.89
2023-11-30T13:16:59.699Z,10.89
2023-11-30T13:19:30.140Z,10.89
2023-11-30T13:21:58.830Z,10.89
2023-11-30T13:24:27.869Z,10.89
2023-11-30T13:26:57.957Z,10.94
2023-11-30T13:29:26.561Z,10.95
2023-11-30T13:31:55.101Z,10.96
2023-11-30T13:34:23.694Z,10.95
2023-11-30T13:36:52.433Z,10.96
2023-11-30T13:39:21.039Z,10.95
2023-11-30T13:41:50.070Z,10.95
2023-11-30T13:44:20.221Z,10.98
2023-11-30T13:46:48.882Z,10.94
2023-11-30T13:49:17.629Z,10.94
2023-11-30T13:51:46.897Z,10.89
2023-11-30T13:54:17.315Z,10.86
2023-11-30T13:56:46.057Z,10.82
2023-11-30T13:59:14.665Z,10.83
2023-11-30T14:01:44.901Z,10.86
2023-11-30T14:04:13.655Z,10.88
2023-11-30T14:06:42.746Z,10.89
2023-11-30T14:09:15.192Z,10.89
2023-11-30T14:11:44.022Z,10.86
2023-11-30T14:14:12.615Z,10.88
2023-11-30T14:16:41.228Z,10.38
2023-11-30T14:19:11.238Z,10.86
2023-11-30T14:21:40.105Z,10.82
2023-11-30T14:24:09.432Z,10.84
2023-11-30T14:26:39.796Z,10.91
2023-11-30T14:29:08.522Z,10.94
2023-11-30T14:31:37.334Z,11.00
2023-11-30T14:34:06.047Z,10.98
2023-11-30T14:36:36.098Z,10.97
2023-11-30T14:39:05.748Z,10.95
2023-11-30T14:41:34.406Z,10.98
2023-11-30T14:44:04.183Z,10.98
2023-11-30T14:46:32.834Z,11.01
2023-11-30T14:49:01.482Z,11.02
2023-11-30T14:51:30.523Z,10.97
2023-11-30T14:54:04.928Z,10.97
2023-11-30T14:56:33.532Z,10.92
2023-11-30T14:59:03.574Z,10.92
2023-11-30T15:01:32.444Z,10.92
2023-11-30T15:04:01.941Z,10.94
2023-11-30T15:06:30.673Z,10.93
2023-11-30T15:09:00.744Z,10.95
2023-11-30T15:11:29.458Z,10.93
2023-11-30T15:13:58.497Z,10.94
2023-11-30T15:16:27.707Z,10.97
2023-11-30T15:18:56.397Z,11.01
2023-11-30T15:21:25.419Z,11.05
2023-11-30T15:23:54.548Z,11.06
2023-11-30T15:26:24.609Z,11.05
2023-11-30T15:28:54.598Z,11.02
2023-11-30T15:31:27.148Z,11.03
2023-11-30T15:33:55.955Z,11.04
2023-11-30T15:36:24.696Z,11.07
2023-11-30T15:38:53.294Z,11.07
2023-11-30T15:41:23.421Z,11.07
2023-11-30T15:43:52.649Z,11.03
2023-11-30T15:46:22.351Z,11.05
2023-11-30T15:48:51.022Z,11.04
2023-11-30T15:51:20.928Z,11.02
2023-11-30T15:53:49.646Z,10.98
2023-11-30T15:56:21.295Z,10.94
2023-11-30T15:58:52.006Z,10.91
2023-11-30T16:01:20.638Z,10.86
2023-11-30T16:03:52.292Z,10.89
2023-11-30T16:06:22.902Z,10.90
2023-11-30T16:08:51.853Z,10.84
2023-11-30T16:11:20.439Z,10.83
2023-11-30T16:13:51.561Z,10.80
2023-11-30T16:16:20.222Z,10.60
2023-11-30T16:18:49.542Z,10.77
2023-11-30T16:21:19.262Z,10.61
2023-11-30T16:23:48.635Z,10.81
2023-11-30T16:26:21.170Z,10.81
2023-11-30T16:28:51.270Z,10.82
2023-11-30T16:31:19.995Z,10.83
2023-11-30T16:33:50.527Z,10.84
2023-11-30T16:36:20.417Z,10.85
2023-11-30T16:38:49.062Z,10.84
2023-11-30T16:41:17.920Z,10.82
2023-11-30T16:43:46.561Z,10.83
2023-11-30T16:46:17.565Z,10.88
2023-11-30T16:48:47.385Z,10.90
2023-11-30T16:51:16.217Z,10.92
2023-11-30T16:53:45.858Z,10.98
2023-11-30T16:56:14.729Z,10.97
2023-11-30T16:58:43.824Z,11.00
2023-11-30T17:01:13.462Z,10.98
2023-11-30T17:03:43.635Z,11.03
2023-11-30T17:06:12.417Z,11.02
2023-11-30T17:08:41.581Z,11.02
2023-11-30T17:11:10.346Z,11.00
2023-11-30T17:13:39.402Z,10.98
2023-11-30T17:16:09.556Z,10.97
2023-11-30T17:18:40.554Z,10.91
2023-11-30T17:21:10.767Z,10.88
2023-11-30T17:23:40.266Z,10.86
2023-11-30T17:26:09.713Z,10.90
2023-11-30T17:28:38.252Z,10.89
2023-11-30T17:31:07.302Z,10.90
2023-11-30T17:33:36.200Z,10.86
2023-11-30T17:36:06.550Z,10.83
2023-11-30T17:38:37.725Z,10.83
2023-11-30T17:41:06.669Z,10.81
2023-11-30T17:43:35.359Z,10.82
2023-11-30T17:46:04.274Z,10.82
2023-11-30T17:48:32.936Z,10.84
2023-11-30T17:51:01.598Z,10.89
2023-11-30T17:53:30.180Z,10.91
2023-11-30T17:56:00.359Z,10.94
2023-11-30T17:58:28.992Z,10.92
2023-11-30T18:00:58.501Z,10.91
2023-11-30T18:03:28.558Z,10.93
2023-11-30T18:05:57.294Z,10.90
2023-11-30T18:08:28.178Z,10.91
2023-11-30T18:10:57.648Z,10.88
2023-11-30T18:13:27.797Z,10.90
2023-11-30T18:15:56.636Z,10.86
2023-11-30T18:18:25.358Z,10.88
2023-11-30T18:20:54.115Z,10.90
2023-11-30T18:23:22.764Z,10.88
2023-11-30T18:25:51.456Z,10.86
2023-11-30T18:28:20.136Z,10.84
2023-11-30T18:30:51.131Z,10.81
2023-11-30T18:33:20.526Z,10.76
2023-11-30T18:35:49.233Z,10.75
2023-11-30T18:38:17.815Z,10.76
2023-11-30T18:40:46.527Z,10.76
2023-11-30T18:43:17.320Z,10.75
2023-11-30T18:45:46.299Z,10.56
2023-11-30T18:48:16.759Z,10.68
2023-11-30T18:50:45.535Z,10.67
2023-11-30T18:53:14.480Z,10.66
2023-11-30T18:55:44.099Z,10.64
2023-11-30T18:58:13.666Z,10.67
2023-11-30T19:00:42.241Z,10.70
2023-11-30T19:03:12.550Z,10.72
2023-11-30T19:05:42.629Z,10.72
2023-11-30T19:08:11.973Z,10.70
2023-11-30T19:10:41.153Z,10.68
2023-11-30T19:13:09.800Z,10.67
2023-11-30T19:15:42.609Z,10.67
2023-11-30T19:18:11.422Z,10.66
2023-11-30T19:20:42.518Z,10.60
2023-11-30T19:23:11.222Z,10.66
2023-11-30T19:25:42.537Z,10.65
2023-11-30T19:28:11.385Z,10.60
2023-11-30T19:30:39.956Z,10.58
2023-11-30T19:33:08.587Z,10.56
2023-11-30T19:35:38.262Z,10.57
2023-11-30T19:38:08.399Z,10.58
2023-11-30T19:40:37.482Z,10.49
2023-11-30T19:43:06.162Z,10.56
2023-11-30T19:45:34.867Z,10.49
2023-11-30T19:48:04.752Z,10.58
2023-11-30T19:50:35.572Z,10.58
2023-11-30T19:53:05.774Z,10.59
2023-11-30T19:55:35.761Z,10.62
2023-11-30T19:58:04.683Z,9.36
2023-11-30T20:00:33.338Z,10.61
2023-11-30T20:03:03.222Z,10.59
2023-11-30T20:05:32.034Z,10.57
2023-11-30T20:08:00.788Z,10.56
2023-11-30T20:10:30.413Z,10.59
2023-11-30T20:13:00.621Z,10.58
2023-11-30T20:15:31.657Z,10.54
2023-11-30T20:18:00.611Z,10.52
2023-11-30T20:20:29.264Z,10.02
2023-11-30T20:22:58.963Z,10.55
2023-11-30T20:25:28.810Z,10.55
2023-11-30T20:27:57.492Z,10.53
2023-11-30T20:30:29.341Z,10.50
2023-11-30T20:32:58.074Z,10.44
2023-11-30T20:35:26.988Z,9.58
2023-11-30T20:37:55.882Z,10.37
2023-11-30T20:40:24.434Z,10.25
2023-11-30T20:42:54.334Z,10.38
2023-11-30T20:45:23.051Z,10.34
2023-11-30T20:47:53.187Z,10.34
2023-11-30T20:50:21.827Z,10.33
2023-11-30T20:52:50.615Z,10.32
2023-11-30T20:55:21.270Z,10.31
2023-11-30T20:57:50.014Z,10.32
2023-11-30T21:00:19.308Z,10.32
2023-11-30T21:02:48.157Z,10.32
2023-11-30T21:05:19.500Z,10.35
2023-11-30T21:07:48.228Z,10.30
2023-11-30T21:10:16.977Z,10.28
2023-11-30T21:12:45.668Z,9.90
2023-11-30T21:15:14.371Z,10.31
2023-11-30T21:17:43.000Z,10.29
2023-11-30T21:20:12.092Z,10.26
2023-11-30T21:22:44.140Z,10.23
2023-11-30T21:25:13.473Z,10.21
2023-11-30T21:27:43.129Z,10.25
2023-11-30T21:30:13.283Z,10.26
2023-11-30T21:32:42.023Z,10.24
2023-11-30T21:35:11.871Z,10.25
2023-11-30T21:37:40.553Z,10.23
2023-11-30T21:40:11.998Z,10.24
2023-11-30T21:42:40.675Z,10.22
2023-11-30T21:45:09.827Z,10.20
2023-11-30T21:47:38.595Z,10.18
2023-11-30T21:50:17.676Z,10.05
2023-11-30T21:52:47.991Z,10.17
2023-11-30T21:55:19.241Z,10.18
2023-11-30T21:57:49.064Z,10.18
2023-11-30T22:00:19.825Z,10.18
2023-11-30T22:02:48.539Z,10.17
2023-11-30T22:05:26.778Z,10.14
2023-11-30T22:08:01.505Z,10.10
2023-11-30T22:10:31.653Z,10.10
2023-11-30T22:13:00.346Z,9.96
2023-11-30T22:15:30.986Z,10.07
2023-11-30T22:18:00.166Z,10.08
2023-11-30T22:20:29.043Z,10.12
2023-11-30T22:22:57.861Z,10.13
2023-11-30T22:25:26.420Z,10.12
2023-11-30T22:27:56.595Z,10.11
2023-11-30T22:30:25.246Z,10.08
2023-11-30T22:32:54.265Z,9.72
2023-11-30T22:35:23.033Z,9.97
2023-11-30T22:37:51.752Z,9.93
2023-11-30T22:40:20.437Z,9.95
2023-11-30T22:42:49.096Z,9.98
2023-11-30T22:45:19.149Z,10.03
2023-11-30T22:47:47.774Z,10.06
2023-11-30T22:50:16.551Z,10.03
2023-11-30T22:52:45.731Z,10.18
2023-11-30T22:55:14.721Z,10.17
2023-11-30T22:57:43.630Z,10.18
2023-11-30T23:00:21.557Z,10.21
2023-11-30T23:02:53.681Z,9.65
2023-11-30T23:05:22.744Z,10.21
2023-11-30T23:07:51.391Z,10.21
2023-11-30T23:10:20.797Z,10.24
2023-11-30T23:12:50.616Z,10.05
2023-11-30T23:15:19.454Z,10.28
2023-11-30T23:17:49.110Z,10.27
2023-11-30T23:20:19.184Z,10.31
2023-11-30T23:22:47.846Z,10.34
2023-11-30T23:25:16.704Z,10.34
2023-11-30T23:27:45.976Z,10.40
2023-11-30T23:30:15.898Z,10.40
2023-11-30T23:32:47.812Z,10.40
2023-11-30T23:35:19.595Z,9.43
2023-11-30T23:37:49.289Z,10.43
2023-11-30T23:40:18.093Z,10.44
2023-11-30T23:42:46.761Z,10.45
2023-11-30T23:45:15.397Z,10.37
2023-11-30T23:47:44.029Z,10.48
2023-11-30T23:50:12.930Z,10.49
2023-11-30T23:52:42.932Z,10.51
2023-11-30T23:55:11.710Z,10.49
2023-11-30T23:57:40.454Z,10.52
